createdAt,value
2022-11-30T00:00:40.823Z,1.42
2022-11-30T00:01:47.460Z,1.43
2022-11-30T00:03:05.368Z,1.41
2022-11-30T00:04:12.375Z,1.42
2022-11-30T00:05:19.315Z,1.37
2022-11-30T00:06:33.348Z,1.31
2022-11-30T00:07:43.039Z,1.32
2022-11-30T00:08:56.693Z,1.36
2022-11-30T00:10:03.986Z,1.31
2022-11-30T00:11:31.433Z,1.29
2022-11-30T00:12:55.054Z,1.26
2022-11-30T00:14:09.975Z,1.26
2022-11-30T00:15:21.288Z,1.29
2022-11-30T00:16:37.309Z,1.31
2022-11-30T00:17:50.490Z,1.35
2022-11-30T00:19:03.471Z,1.41
2022-11-30T00:20:21.174Z,1.40
2022-11-30T00:21:26.453Z,1.41
2022-11-30T00:22:36.728Z,1.42
2022-11-30T00:23:44.539Z,1.38
2022-11-30T00:24:48.561Z,1.35
2022-11-30T00:25:52.376Z,1.33
2022-11-30T00:26:57.452Z,1.36
2022-11-30T00:28:05.967Z,1.40
2022-11-30T00:29:09.735Z,1.35
2022-11-30T00:30:14.628Z,1.35
2022-11-30T00:31:19.755Z,1.36
2022-11-30T00:32:23.374Z,1.42
2022-11-30T00:33:27.572Z,1.43
2022-11-30T00:34:31.369Z,1.43
2022-11-30T00:35:34.828Z,1.39
2022-11-30T00:36:51.369Z,1.43
2022-11-30T00:37:55.104Z,1.41
2022-11-30T00:39:01.033Z,1.47
2022-11-30T00:40:15.867Z,1.47
2022-11-30T00:41:26.449Z,1.50
2022-11-30T00:42:32.049Z,1.46
2022-11-30T00:43:36.773Z,1.49
2022-11-30T00:44:44.285Z,1.47
2022-11-30T00:46:00.273Z,1.50
2022-11-30T00:47:04.696Z,1.50
2022-11-30T00:48:19.197Z,1.44
2022-11-30T00:49:34.882Z,1.40
2022-11-30T00:50:42.812Z,1.47
2022-11-30T00:51:54.736Z,1.50
2022-11-30T00:53:09.076Z,1.52
2022-11-30T00:54:14.115Z,1.45
2022-11-30T00:55:17.672Z,1.50
2022-11-30T00:56:27.884Z,1.51
2022-11-30T00:57:34.698Z,1.53
2022-11-30T00:58:40.130Z,1.57
2022-11-30T00:59:44.219Z,1.55
2022-11-30T01:00:49.857Z,1.53
2022-11-30T01:01:58.728Z,1.44
2022-11-30T01:03:07.118Z,1.51
2022-11-30T01:04:15.141Z,1.53
2022-11-30T01:05:20.650Z,1.52
2022-11-30T01:06:25.938Z,1.55
2022-11-30T01:07:33.419Z,1.56
2022-11-30T01:08:40.138Z,1.57
2022-11-30T01:09:44.643Z,1.59
2022-11-30T01:11:30.596Z,1.63
2022-11-30T01:12:25.953Z,1.62
2022-11-30T01:13:37.712Z,1.63
2022-11-30T01:14:43.999Z,1.66
2022-11-30T01:15:47.960Z,1.64
2022-11-30T01:16:56.482Z,1.67
2022-11-30T01:19:23.994Z,1.61
2022-11-30T01:20:35.605Z,1.62
2022-11-30T01:21:40.593Z,1.58
2022-11-30T01:22:45.796Z,1.52
2022-11-30T01:23:54.466Z,1.54
2022-11-30T01:25:20.412Z,1.46
2022-11-30T01:26:28.349Z,1.48
2022-11-30T01:27:36.923Z,1.48
2022-11-30T01:28:41.625Z,1.47
2022-11-30T01:29:51.072Z,1.50
2022-11-30T01:31:07.265Z,1.52
2022-11-30T01:32:15.898Z,1.47
2022-11-30T01:33:23.045Z,1.44
2022-11-30T01:34:28.096Z,1.42
2022-11-30T01:35:35.547Z,1.44
2022-11-30T01:36:43.828Z,1.48
2022-11-30T01:37:52.133Z,1.43
2022-11-30T01:38:59.925Z,1.45
2022-11-30T01:40:04.927Z,1.48
2022-11-30T01:41:12.729Z,1.47
2022-11-30T01:42:21.009Z,1.37
2022-11-30T01:43:47.252Z,1.40
2022-11-30T01:44:58.579Z,1.43
2022-11-30T01:46:29.704Z,1.42
2022-11-30T01:47:48.040Z,1.44
2022-11-30T01:49:09.535Z,1.48
2022-11-30T01:50:49.083Z,1.49
2022-11-30T01:52:41.502Z,1.50
2022-11-30T01:53:49.059Z,1.48
2022-11-30T01:55:22.339Z,1.47
2022-11-30T01:56:26.595Z,1.48
2022-11-30T01:58:23.675Z,1.43
2022-11-30T02:00:51.702Z,1.41
2022-11-30T02:02:03.633Z,1.38
2022-11-30T02:03:20.292Z,1.43
2022-11-30T02:04:37.195Z,1.35
2022-11-30T02:05:42.991Z,1.33
2022-11-30T02:06:48.302Z,1.34
2022-11-30T02:07:52.546Z,1.29
2022-11-30T02:08:56.910Z,1.31
2022-11-30T02:10:00.712Z,1.20
2022-11-30T02:11:10.298Z,1.22
2022-11-30T02:12:34.996Z,1.16
2022-11-30T02:13:53.097Z,1.20
2022-11-30T02:16:59.494Z,1.28
2022-11-30T02:18:28.072Z,1.21
2022-11-30T02:20:04.784Z,1.21
2022-11-30T02:21:28.281Z,1.19
2022-11-30T02:23:12.342Z,1.22
2022-11-30T02:25:00.044Z,1.28
2022-11-30T02:26:29.798Z,1.27
2022-11-30T02:27:55.095Z,1.28
2022-11-30T02:29:47.712Z,1.35
2022-11-30T02:30:58.718Z,1.27
2022-11-30T02:32:23.463Z,1.30
2022-11-30T02:33:38.546Z,1.30
2022-11-30T02:34:50.962Z,1.33
2022-11-30T02:36:15.822Z,1.32
2022-11-30T02:37:24.045Z,1.28
2022-11-30T02:38:31.634Z,1.25
2022-11-30T02:39:43.701Z,1.18
2022-11-30T02:40:50.967Z,1.19
2022-11-30T02:41:55.959Z,1.19
2022-11-30T02:43:15.401Z,1.11
2022-11-30T02:44:35.076Z,1.08
2022-11-30T02:46:21.705Z,1.12
2022-11-30T02:47:48.810Z,1.02
2022-11-30T02:49:39.083Z,1.05
2022-11-30T02:51:16.809Z,1.01
2022-11-30T02:52:27.176Z,1.02
2022-11-30T02:53:35.791Z,1.00
2022-11-30T02:56:05.491Z,1.00
2022-11-30T02:57:23.639Z,1.01
2022-11-30T03:00:10.875Z,1.01
2022-11-30T03:01:25.222Z,1.04
2022-11-30T03:02:31.223Z,1.05
2022-11-30T03:03:35.632Z,1.06
2022-11-30T03:04:56.259Z,1.04
2022-11-30T03:06:01.040Z,0.94
2022-11-30T03:07:11.075Z,0.96
2022-11-30T03:08:17.645Z,1.00
2022-11-30T03:09:26.357Z,1.02
2022-11-30T03:10:35.892Z,0.99
2022-11-30T03:11:50.021Z,0.97
2022-11-30T03:13:04.922Z,0.99
2022-11-30T03:14:28.551Z,0.94
2022-11-30T03:15:41.691Z,0.91
2022-11-30T03:16:46.861Z,0.94
2022-11-30T03:17:53.539Z,0.98
2022-11-30T03:19:01.396Z,0.96
2022-11-30T03:20:11.643Z,0.93
2022-11-30T03:21:15.535Z,0.93
2022-11-30T03:22:19.109Z,0.90
2022-11-30T03:23:31.077Z,0.92
2022-11-30T03:24:34.679Z,0.95
2022-11-30T03:25:42.944Z,0.94
2022-11-30T03:26:47.176Z,1.00
2022-11-30T03:27:50.728Z,0.97
2022-11-30T03:28:54.897Z,0.99
2022-11-30T03:30:10.206Z,0.92
2022-11-30T03:31:18.120Z,0.91
2022-11-30T03:32:25.692Z,0.98
2022-11-30T03:33:34.775Z,1.04
2022-11-30T03:34:53.059Z,1.04
2022-11-30T03:36:16.433Z,1.06
2022-11-30T03:37:21.273Z,1.09
2022-11-30T03:38:27.499Z,1.10
2022-11-30T03:39:36.221Z,1.09
2022-11-30T03:40:44.582Z,1.10
2022-11-30T03:41:52.957Z,1.08
2022-11-30T03:43:04.094Z,1.09
2022-11-30T03:44:28.375Z,1.10
2022-11-30T03:45:33.536Z,1.03
2022-11-30T03:46:41.461Z,1.01
2022-11-30T03:47:50.844Z,1.09
2022-11-30T03:48:56.307Z,1.10
2022-11-30T03:50:15.240Z,1.11
2022-11-30T03:51:21.121Z,1.12
2022-11-30T03:52:30.832Z,1.16
2022-11-30T03:53:37.502Z,1.22
2022-11-30T03:54:47.615Z,1.26
2022-11-30T03:55:58.763Z,1.24
2022-11-30T03:57:04.609Z,1.27
2022-11-30T03:58:21.991Z,1.29
2022-11-30T03:59:33.438Z,1.31
2022-11-30T04:00:40.251Z,1.26
2022-11-30T04:01:51.232Z,1.22
2022-11-30T04:02:56.280Z,1.28
2022-11-30T04:04:00.181Z,1.26
2022-11-30T04:05:04.045Z,1.26
2022-11-30T04:06:12.419Z,1.29
2022-11-30T04:07:16.902Z,1.29
2022-11-30T04:08:20.477Z,1.19
2022-11-30T04:09:24.186Z,1.15
2022-11-30T04:10:27.810Z,1.11
2022-11-30T04:11:31.527Z,1.15
2022-11-30T04:12:35.614Z,1.13
2022-11-30T04:13:40.248Z,1.06
2022-11-30T04:14:43.925Z,1.09
2022-11-30T04:15:53.765Z,1.09
2022-11-30T04:17:00.000Z,1.07
2022-11-30T04:18:09.187Z,1.04
2022-11-30T04:19:41.309Z,0.96
2022-11-30T04:20:45.461Z,0.99
2022-11-30T04:21:49.897Z,1.03
2022-11-30T04:22:58.439Z,1.01
2022-11-30T04:24:04.980Z,0.99
2022-11-30T04:25:21.587Z,0.95
2022-11-30T04:26:28.250Z,0.99
2022-11-30T04:27:37.583Z,0.97
2022-11-30T04:28:52.111Z,0.91
2022-11-30T04:30:00.059Z,0.96
2022-11-30T04:31:19.867Z,0.92
2022-11-30T04:32:25.281Z,0.83
2022-11-30T04:33:37.765Z,0.85
2022-11-30T04:34:52.159Z,0.79
2022-11-30T04:36:01.609Z,0.78
2022-11-30T04:37:23.088Z,0.74
2022-11-30T04:38:37.745Z,0.74
2022-11-30T04:39:56.109Z,0.72
2022-11-30T04:41:08.786Z,0.79
2022-11-30T04:43:39.817Z,0.90
2022-11-30T04:44:49.060Z,0.94
2022-11-30T04:45:54.390Z,0.99
2022-11-30T04:47:01.627Z,0.97
2022-11-30T04:48:14.481Z,0.95
2022-11-30T04:49:41.095Z,1.00
2022-11-30T04:50:48.577Z,0.96
2022-11-30T04:51:58.929Z,1.00
2022-11-30T04:53:05.133Z,1.07
2022-11-30T04:54:17.209Z,1.07
2022-11-30T04:55:24.425Z,1.09
2022-11-30T04:56:34.378Z,1.04
2022-11-30T04:57:39.093Z,0.99
2022-11-30T04:58:56.091Z,0.99
2022-11-30T04:59:59.627Z,1.07
2022-11-30T05:01:04.437Z,1.11
2022-11-30T05:02:13.110Z,1.12
2022-11-30T05:03:20.012Z,1.14
2022-11-30T05:04:28.302Z,1.15
2022-11-30T05:05:34.895Z,1.10
2022-11-30T05:06:42.378Z,0.98
2022-11-30T05:07:52.265Z,0.99
2022-11-30T05:08:56.666Z,1.04
2022-11-30T05:10:03.157Z,1.09
2022-11-30T05:11:16.351Z,1.08
2022-11-30T05:12:27.118Z,1.12
2022-11-30T05:13:36.559Z,1.08
2022-11-30T05:14:46.617Z,1.12
2022-11-30T05:15:57.646Z,1.12
2022-11-30T05:17:03.604Z,1.11
2022-11-30T05:18:18.759Z,1.14
2022-11-30T05:19:24.856Z,1.17
2022-11-30T05:20:37.824Z,1.16
2022-11-30T05:21:48.801Z,1.14
2022-11-30T05:22:57.713Z,1.04
2022-11-30T05:24:03.243Z,1.08
2022-11-30T05:25:19.852Z,1.08
2022-11-30T05:26:27.283Z,1.13
2022-11-30T05:27:45.740Z,1.14
2022-11-30T05:28:55.972Z,1.18
2022-11-30T05:30:00.378Z,1.21
2022-11-30T05:31:15.311Z,1.08
2022-11-30T05:32:24.699Z,1.12
2022-11-30T05:33:31.336Z,1.14
2022-11-30T05:34:49.720Z,1.12
2022-11-30T05:35:59.209Z,1.10
2022-11-30T05:37:23.937Z,1.11
2022-11-30T05:38:32.904Z,1.12
2022-11-30T05:39:43.166Z,1.05
2022-11-30T05:40:50.603Z,1.04
2022-11-30T05:41:56.669Z,1.06
2022-11-30T05:43:03.668Z,1.04
2022-11-30T05:44:19.681Z,1.06
2022-11-30T05:45:31.410Z,1.07
2022-11-30T05:46:47.126Z,1.05
2022-11-30T05:47:52.441Z,1.05
2022-11-30T05:49:04.288Z,1.04
2022-11-30T05:50:16.557Z,1.04
2022-11-30T05:51:28.571Z,1.07
2022-11-30T05:52:33.650Z,1.08
2022-11-30T05:53:40.017Z,1.02
2022-11-30T05:54:47.586Z,1.03
2022-11-30T05:55:53.140Z,1.02
2022-11-30T05:57:02.586Z,1.00
2022-11-30T05:58:09.509Z,1.00
2022-11-30T05:59:22.051Z,0.98
2022-11-30T06:00:28.279Z,0.96
2022-11-30T06:01:33.985Z,0.98
2022-11-30T06:02:46.670Z,0.96
2022-11-30T06:03:51.070Z,0.99
2022-11-30T06:04:54.581Z,0.96
2022-11-30T06:05:58.227Z,0.98
2022-11-30T06:07:02.132Z,0.95
2022-11-30T06:08:07.629Z,0.89
2022-11-30T06:09:12.215Z,0.93
2022-11-30T06:10:16.029Z,0.92
2022-11-30T06:11:19.594Z,0.94
2022-11-30T06:12:24.294Z,0.95
2022-11-30T06:13:29.072Z,0.91
2022-11-30T06:14:32.697Z,0.91
2022-11-30T06:15:42.277Z,0.88
2022-11-30T06:16:46.607Z,0.88
2022-11-30T06:17:52.226Z,0.92
2022-11-30T06:18:56.570Z,0.94
2022-11-30T06:20:01.449Z,0.90
2022-11-30T06:21:29.147Z,0.85
2022-11-30T06:22:34.785Z,0.86
2022-11-30T06:23:43.367Z,0.82
2022-11-30T06:24:52.689Z,0.81
2022-11-30T06:26:14.823Z,0.87
2022-11-30T06:27:23.969Z,0.91
2022-11-30T06:28:29.784Z,0.85
2022-11-30T06:29:55.625Z,0.85
2022-11-30T06:31:16.200Z,0.88
2022-11-30T06:32:26.283Z,0.82
2022-11-30T06:33:34.769Z,0.76
2022-11-30T06:34:46.199Z,0.75
2022-11-30T06:35:54.536Z,0.69
2022-11-30T06:36:58.844Z,0.74
2022-11-30T06:38:02.584Z,0.71
2022-11-30T06:39:31.460Z,0.70
2022-11-30T06:40:43.823Z,0.62
2022-11-30T06:41:57.387Z,0.71
2022-11-30T06:43:08.921Z,0.70
2022-11-30T06:44:17.266Z,0.65
2022-11-30T06:45:23.744Z,0.68
2022-11-30T06:46:28.320Z,0.70
2022-11-30T06:47:38.215Z,0.74
2022-11-30T06:48:50.998Z,0.76
2022-11-30T06:49:58.099Z,0.76
2022-11-30T06:51:04.828Z,0.80
2022-11-30T06:52:11.139Z,0.84
2022-11-30T06:53:15.511Z,0.85
2022-11-30T06:54:33.050Z,0.79
2022-11-30T06:55:37.479Z,0.83
2022-11-30T06:56:43.527Z,0.85
2022-11-30T06:57:48.392Z,0.94
2022-11-30T06:58:54.555Z,0.95
2022-11-30T06:59:58.653Z,0.99
2022-11-30T07:01:07.262Z,0.98
2022-11-30T07:02:20.579Z,0.98
2022-11-30T07:03:28.768Z,0.92
2022-11-30T07:04:40.196Z,0.95
2022-11-30T07:06:02.099Z,0.98
2022-11-30T07:07:10.433Z,0.98
2022-11-30T07:08:22.665Z,0.97
2022-11-30T07:09:28.312Z,0.96
2022-11-30T07:10:51.585Z,0.97
2022-11-30T07:12:01.032Z,0.97
2022-11-30T07:13:04.838Z,1.02
2022-11-30T07:14:13.057Z,0.96
2022-11-30T07:15:26.152Z,0.92
2022-11-30T07:16:32.741Z,0.99
2022-11-30T07:17:38.516Z,0.97
2022-11-30T07:18:42.928Z,0.99
2022-11-30T07:19:47.327Z,0.95
2022-11-30T07:20:55.118Z,0.90
2022-11-30T07:21:59.170Z,0.92
2022-11-30T07:23:30.590Z,0.95
2022-11-30T07:24:53.940Z,0.94
2022-11-30T07:26:18.485Z,0.89
2022-11-30T07:27:27.586Z,0.86
2022-11-30T07:28:32.627Z,0.84
2022-11-30T07:29:40.669Z,0.88
2022-11-30T07:30:49.018Z,0.89
2022-11-30T07:31:54.422Z,0.83
2022-11-30T07:32:59.020Z,0.85
2022-11-30T07:34:10.290Z,0.81
2022-11-30T07:35:14.124Z,0.78
2022-11-30T07:36:21.499Z,0.83
2022-11-30T07:37:25.353Z,0.86
2022-11-30T07:38:29.245Z,0.82
2022-11-30T07:39:33.158Z,0.82
2022-11-30T07:40:36.920Z,0.86
2022-11-30T07:41:42.206Z,0.86
2022-11-30T07:42:55.034Z,0.90
2022-11-30T07:43:59.740Z,0.92
2022-11-30T07:45:03.476Z,0.87
2022-11-30T07:46:12.838Z,0.81
2022-11-30T07:47:17.738Z,0.82
2022-11-30T07:48:22.248Z,0.81
2022-11-30T07:49:26.167Z,0.83
2022-11-30T07:50:29.727Z,0.88
2022-11-30T07:51:34.395Z,0.86
2022-11-30T07:52:38.710Z,0.81
2022-11-30T07:53:43.598Z,0.83
2022-11-30T07:54:48.090Z,0.86
2022-11-30T07:55:56.868Z,0.85
2022-11-30T07:57:12.753Z,0.79
2022-11-30T07:58:17.640Z,0.78
2022-11-30T07:59:21.352Z,0.80
2022-11-30T08:00:31.393Z,0.85
2022-11-30T08:01:42.170Z,0.89
2022-11-30T08:02:51.541Z,0.84
2022-11-30T08:03:55.955Z,0.86
2022-11-30T08:05:00.406Z,0.90
2022-11-30T08:06:09.062Z,0.90
2022-11-30T08:07:14.916Z,0.92
2022-11-30T08:08:18.541Z,0.97
2022-11-30T08:09:22.953Z,1.02
2022-11-30T08:10:26.923Z,1.02
2022-11-30T08:11:35.023Z,1.01
2022-11-30T08:12:38.837Z,1.04
2022-11-30T08:13:43.332Z,1.08
2022-11-30T08:15:17.948Z,1.03
2022-11-30T08:16:27.099Z,0.95
2022-11-30T08:17:31.072Z,0.91
2022-11-30T08:18:35.196Z,0.89
2022-11-30T08:19:38.954Z,0.87
2022-11-30T08:20:46.913Z,0.87
2022-11-30T08:21:53.527Z,0.90
2022-11-30T08:22:59.852Z,0.88
2022-11-30T08:24:05.731Z,0.88
2022-11-30T08:25:13.223Z,0.93
2022-11-30T08:26:25.412Z,0.96
2022-11-30T08:27:28.945Z,0.95
2022-11-30T08:28:36.186Z,0.97
2022-11-30T08:29:39.835Z,0.98
2022-11-30T08:30:43.562Z,0.98
2022-11-30T08:31:47.169Z,0.96
2022-11-30T08:32:51.841Z,0.97
2022-11-30T08:34:01.895Z,1.00
2022-11-30T08:35:12.806Z,1.02
2022-11-30T08:36:25.933Z,0.97
2022-11-30T08:37:29.739Z,1.02
2022-11-30T08:38:33.400Z,1.03
2022-11-30T08:39:37.752Z,0.98
2022-11-30T08:40:41.303Z,0.97
2022-11-30T08:41:44.936Z,1.00
2022-11-30T08:42:48.509Z,0.97
2022-11-30T08:43:53.304Z,0.97
2022-11-30T08:44:57.036Z,1.01
2022-11-30T08:46:11.387Z,1.04
2022-11-30T08:47:25.249Z,1.03
2022-11-30T08:48:29.784Z,1.02
2022-11-30T08:49:33.543Z,1.01
2022-11-30T08:50:39.940Z,1.06
2022-11-30T08:52:15.296Z,1.12
2022-11-30T08:53:09.298Z,1.14
2022-11-30T08:54:16.011Z,1.21
2022-11-30T08:55:19.668Z,1.24
2022-11-30T08:56:23.862Z,1.26
2022-11-30T08:57:27.494Z,1.25
2022-11-30T08:58:35.450Z,1.25
2022-11-30T08:59:38.926Z,1.28
2022-11-30T09:00:42.591Z,1.30
2022-11-30T09:01:46.517Z,1.31
2022-11-30T09:02:56.158Z,1.24
2022-11-30T09:03:59.827Z,1.19
2022-11-30T09:05:03.631Z,1.23
2022-11-30T09:06:13.878Z,1.24
2022-11-30T09:07:18.132Z,1.28
2022-11-30T09:08:22.039Z,1.25
2022-11-30T09:09:26.165Z,1.27
2022-11-30T09:10:30.118Z,1.32
2022-11-30T09:11:34.829Z,1.32
2022-11-30T09:12:40.768Z,1.33
2022-11-30T09:13:45.440Z,1.27
2022-11-30T09:14:55.899Z,1.30
2022-11-30T09:16:01.948Z,1.35
2022-11-30T09:17:09.022Z,1.38
2022-11-30T09:18:14.202Z,1.41
2022-11-30T09:19:17.745Z,1.34
2022-11-30T09:20:21.479Z,1.32
2022-11-30T09:21:25.955Z,1.30
2022-11-30T09:22:29.596Z,1.32
2022-11-30T09:23:33.571Z,1.34
2022-11-30T09:24:38.349Z,1.35
2022-11-30T09:25:42.522Z,1.38
2022-11-30T09:26:46.258Z,1.30
2022-11-30T09:27:50.117Z,1.29
2022-11-30T09:28:54.672Z,1.28
2022-11-30T09:29:58.345Z,1.36
2022-11-30T09:31:10.983Z,1.39
2022-11-30T09:32:14.909Z,1.45
2022-11-30T09:33:19.388Z,1.49
2022-11-30T09:34:23.247Z,1.46
2022-11-30T09:35:26.843Z,1.50
2022-11-30T09:36:36.674Z,1.54
2022-11-30T09:37:40.519Z,1.50
2022-11-30T09:38:44.301Z,1.46
2022-11-30T09:39:47.942Z,1.50
2022-11-30T09:41:08.779Z,1.49
2022-11-30T09:42:43.480Z,1.47
2022-11-30T09:44:09.136Z,1.50
2022-11-30T09:45:30.763Z,1.47
2022-11-30T09:46:59.296Z,1.48
2022-11-30T09:48:22.456Z,1.52
2022-11-30T09:49:35.097Z,1.51
2022-11-30T09:50:44.612Z,1.48
2022-11-30T09:51:50.630Z,1.48
2022-11-30T09:53:07.561Z,1.50
2022-11-30T09:54:23.409Z,1.47
2022-11-30T09:55:45.078Z,1.47
2022-11-30T09:56:50.108Z,1.36
2022-11-30T09:57:58.645Z,1.39
2022-11-30T09:59:29.776Z,1.44
2022-11-30T10:00:35.288Z,1.38
2022-11-30T10:01:44.943Z,1.35
2022-11-30T10:02:53.987Z,1.27
2022-11-30T10:03:58.503Z,1.25
2022-11-30T10:05:02.481Z,1.24
2022-11-30T10:07:14.334Z,1.16
2022-11-30T10:08:50.990Z,1.19
2022-11-30T10:10:34.112Z,1.21
2022-11-30T10:11:58.466Z,1.23
2022-11-30T10:13:32.522Z,1.20
2022-11-30T10:15:05.107Z,1.20
2022-11-30T10:16:36.040Z,1.31
2022-11-30T10:17:57.184Z,1.31
2022-11-30T10:19:03.419Z,1.33
2022-11-30T10:20:37.702Z,1.40
2022-11-30T10:22:39.888Z,1.44
2022-11-30T10:24:17.738Z,1.49
2022-11-30T10:25:46.617Z,1.49
2022-11-30T10:27:12.676Z,1.48
2022-11-30T10:28:47.461Z,1.43
2022-11-30T10:29:57.405Z,1.43
2022-11-30T10:31:02.926Z,1.44
2022-11-30T10:32:30.020Z,1.43
2022-11-30T10:33:46.942Z,1.43
2022-11-30T10:35:01.918Z,1.41
2022-11-30T10:36:34.950Z,1.41
2022-11-30T10:37:40.357Z,1.37
2022-11-30T10:38:50.347Z,1.33
2022-11-30T10:40:13.680Z,1.36
2022-11-30T10:41:48.533Z,1.38
2022-11-30T10:43:23.338Z,1.38
2022-11-30T10:44:43.097Z,1.34
2022-11-30T10:45:51.740Z,1.35
2022-11-30T10:47:29.471Z,1.39
2022-11-30T10:48:50.890Z,1.38
2022-11-30T10:49:54.570Z,1.32
2022-11-30T10:51:01.865Z,1.30
2022-11-30T10:52:17.554Z,1.30
2022-11-30T10:53:22.227Z,1.33
2022-11-30T10:54:25.757Z,1.33
2022-11-30T10:55:36.104Z,1.37
2022-11-30T10:56:39.719Z,1.41
2022-11-30T10:57:46.088Z,1.44
2022-11-30T10:59:17.732Z,1.46
2022-11-30T11:00:21.948Z,1.51
2022-11-30T11:01:41.841Z,1.55
2022-11-30T11:02:51.971Z,1.59
2022-11-30T11:04:19.997Z,1.61
2022-11-30T11:05:29.944Z,1.60
2022-11-30T11:06:34.343Z,1.61
2022-11-30T11:08:07.082Z,1.54
2022-11-30T11:09:50.926Z,1.55
2022-11-30T11:10:54.974Z,1.58
2022-11-30T11:12:30.769Z,1.56
2022-11-30T11:13:43.987Z,1.62
2022-11-30T11:14:48.020Z,1.64
2022-11-30T11:16:01.506Z,1.66
2022-11-30T11:17:22.865Z,1.70
2022-11-30T11:18:38.643Z,1.71
2022-11-30T11:19:43.768Z,1.69
2022-11-30T11:20:47.368Z,1.72
2022-11-30T11:21:52.416Z,1.74
2022-11-30T11:22:56.540Z,1.76
2022-11-30T11:24:00.246Z,1.79
2022-11-30T11:25:31.948Z,1.82
2022-11-30T11:26:35.562Z,1.83
2022-11-30T11:27:44.810Z,1.84
2022-11-30T11:28:52.842Z,1.90
2022-11-30T11:30:02.601Z,1.93
2022-11-30T11:31:34.407Z,1.92
2022-11-30T11:32:38.192Z,1.92
2022-11-30T11:33:53.498Z,1.93
2022-11-30T11:34:58.314Z,1.91
2022-11-30T11:36:13.745Z,1.90
2022-11-30T11:37:29.055Z,1.93
2022-11-30T11:38:48.945Z,1.94
2022-11-30T11:40:10.492Z,1.99
2022-11-30T11:41:38.194Z,1.93
2022-11-30T11:42:52.536Z,1.93
2022-11-30T11:44:11.704Z,1.94
2022-11-30T11:45:28.447Z,1.96
2022-11-30T11:46:36.658Z,1.97
2022-11-30T11:47:46.220Z,1.99
2022-11-30T11:49:10.004Z,2.01
2022-11-30T11:50:13.453Z,2.06
2022-11-30T11:51:40.186Z,1.99
2022-11-30T11:52:44.227Z,1.96
2022-11-30T11:53:54.307Z,2.00
2022-11-30T11:55:13.561Z,1.84
2022-11-30T11:56:33.027Z,1.86
2022-11-30T11:58:00.916Z,1.85
2022-11-30T11:59:22.401Z,1.81
2022-11-30T12:00:26.348Z,1.82
2022-11-30T12:02:03.953Z,1.85
2022-11-30T12:03:35.380Z,1.84
2022-11-30T12:04:59.369Z,1.87
2022-11-30T12:06:17.371Z,1.85
2022-11-30T12:07:55.398Z,1.82
2022-11-30T12:09:34.290Z,1.81
2022-11-30T12:10:53.161Z,1.87
2022-11-30T12:11:57.058Z,1.88
2022-11-30T12:13:00.939Z,1.90
2022-11-30T12:14:09.699Z,1.86
2022-11-30T12:15:13.869Z,1.85
2022-11-30T12:16:47.044Z,1.85
2022-11-30T12:18:24.042Z,1.92
2022-11-30T12:20:04.332Z,1.90
2022-11-30T12:21:21.903Z,1.92
2022-11-30T12:23:16.221Z,1.93
2022-11-30T12:24:47.972Z,1.91
2022-11-30T12:26:35.454Z,1.93
2022-11-30T12:28:16.097Z,1.89
2022-11-30T12:29:57.027Z,1.87
2022-11-30T12:31:13.504Z,1.88
2022-11-30T12:33:17.736Z,1.85
2022-11-30T12:34:29.849Z,1.85
2022-11-30T12:35:45.435Z,1.87
2022-11-30T12:37:36.651Z,1.84
2022-11-30T12:38:54.145Z,1.84
2022-11-30T12:40:37.433Z,1.87
2022-11-30T12:41:54.990Z,1.83
2022-11-30T12:43:31.257Z,1.72
2022-11-30T12:44:54.288Z,1.67
2022-11-30T12:46:20.438Z,1.72
2022-11-30T12:48:24.228Z,1.74
2022-11-30T12:50:21.790Z,1.74
2022-11-30T12:51:45.407Z,1.79
2022-11-30T12:53:24.110Z,1.76
2022-11-30T12:54:54.743Z,1.79
2022-11-30T12:56:23.051Z,1.75
2022-11-30T12:58:11.446Z,1.76
2022-11-30T13:00:04.035Z,1.81
2022-11-30T13:01:48.608Z,1.85
2022-11-30T13:03:49.168Z,1.74
2022-11-30T13:05:24.509Z,1.76
2022-11-30T13:06:42.530Z,1.70
2022-11-30T13:07:58.486Z,1.66
2022-11-30T13:09:20.393Z,1.66
2022-11-30T13:10:46.345Z,1.63
2022-11-30T13:12:27.273Z,1.64
2022-11-30T13:13:35.833Z,1.61
2022-11-30T13:14:40.770Z,1.60
2022-11-30T13:15:46.995Z,1.61
2022-11-30T13:17:07.111Z,1.68
2022-11-30T13:18:23.867Z,1.68
2022-11-30T13:20:04.709Z,1.59
2022-11-30T13:21:31.825Z,1.60
2022-11-30T13:23:01.403Z,1.53
2022-11-30T13:24:29.187Z,1.58
2022-11-30T13:26:06.982Z,1.64
2022-11-30T13:27:18.709Z,1.63
2022-11-30T13:28:43.215Z,1.65
2022-11-30T13:30:19.934Z,1.62
2022-11-30T13:31:42.474Z,1.69
2022-11-30T13:32:57.932Z,1.78
2022-11-30T13:34:02.493Z,1.79
2022-11-30T13:35:31.026Z,1.79
2022-11-30T13:36:46.183Z,1.77
2022-11-30T13:38:36.823Z,1.73
2022-11-30T13:39:55.996Z,1.76
2022-11-30T13:41:04.277Z,1.77
2022-11-30T13:42:34.313Z,1.81
2022-11-30T13:43:48.113Z,1.78
2022-11-30T13:44:52.278Z,1.79
2022-11-30T13:46:20.180Z,1.81
2022-11-30T13:47:34.831Z,1.82
2022-11-30T13:48:44.305Z,1.81
2022-11-30T13:49:59.536Z,1.86
2022-11-30T13:51:04.364Z,1.88
2022-11-30T13:52:22.481Z,1.89
2022-11-30T13:53:38.848Z,1.92
2022-11-30T13:54:51.021Z,1.90
2022-11-30T13:56:18.967Z,1.89
2022-11-30T13:57:25.582Z,1.93
2022-11-30T13:58:33.525Z,1.95
2022-11-30T13:59:48.697Z,1.96
2022-11-30T14:01:13.235Z,2.01
2022-11-30T14:02:44.684Z,2.03
2022-11-30T14:04:16.125Z,2.06
2022-11-30T14:05:23.529Z,2.00
2022-11-30T14:06:42.216Z,2.01
2022-11-30T14:08:06.031Z,2.04
2022-11-30T14:09:37.854Z,2.09
2022-11-30T14:10:46.696Z,2.12
2022-11-30T14:11:50.386Z,2.13
2022-11-30T14:13:10.808Z,2.06
2022-11-30T14:14:53.569Z,2.12
2022-11-30T14:16:02.456Z,2.09
2022-11-30T14:17:19.471Z,2.12
2022-11-30T14:18:44.317Z,2.06
2022-11-30T14:19:54.092Z,2.02
2022-11-30T14:21:25.873Z,2.01
2022-11-30T14:22:31.288Z,1.96
2022-11-30T14:23:59.957Z,1.97
2022-11-30T14:25:04.665Z,1.90
2022-11-30T14:26:17.593Z,1.97
2022-11-30T14:27:26.446Z,1.94
2022-11-30T14:29:10.804Z,1.93
2022-11-30T14:30:22.054Z,1.92
2022-11-30T14:31:29.174Z,1.94
2022-11-30T14:32:45.880Z,1.90
2022-11-30T14:34:00.120Z,1.91
2022-11-30T14:35:16.113Z,1.93
2022-11-30T14:36:22.004Z,1.92
2022-11-30T14:37:33.241Z,1.94
2022-11-30T14:38:42.668Z,1.99
2022-11-30T14:39:48.526Z,1.95
2022-11-30T14:40:54.340Z,2.02
2022-11-30T14:41:58.569Z,2.07
2022-11-30T14:43:04.363Z,2.06
2022-11-30T14:44:15.021Z,2.07
2022-11-30T14:45:38.947Z,2.07
2022-11-30T14:46:42.683Z,2.07
2022-11-30T14:47:48.191Z,2.11
2022-11-30T14:49:19.356Z,2.12
2022-11-30T14:50:26.704Z,2.12
2022-11-30T14:51:31.719Z,2.11
2022-11-30T14:53:03.959Z,2.16
2022-11-30T14:54:42.767Z,2.16
2022-11-30T14:56:08.747Z,2.11
2022-11-30T14:57:45.468Z,2.16
2022-11-30T14:59:14.149Z,2.17
2022-11-30T15:00:21.204Z,2.13
2022-11-30T15:01:28.724Z,2.12
2022-11-30T15:02:39.156Z,2.17
2022-11-30T15:03:42.828Z,2.17
2022-11-30T15:04:50.128Z,2.18
2022-11-30T15:05:59.766Z,2.11
2022-11-30T15:07:04.002Z,2.05
2022-11-30T15:08:13.264Z,2.09
2022-11-30T15:09:23.038Z,2.09
2022-11-30T15:10:34.142Z,2.09
2022-11-30T15:11:43.703Z,2.13
2022-11-30T15:12:47.765Z,2.10
2022-11-30T15:13:56.394Z,2.06
2022-11-30T15:15:26.471Z,2.10
2022-11-30T15:16:54.304Z,2.06
2022-11-30T15:18:16.653Z,2.08
2022-11-30T15:19:32.865Z,2.11
2022-11-30T15:21:11.418Z,2.13
2022-11-30T15:22:23.479Z,2.12
2022-11-30T15:23:27.332Z,2.18
2022-11-30T15:24:31.269Z,2.22
2022-11-30T15:25:43.175Z,2.22
2022-11-30T15:27:11.315Z,2.21
2022-11-30T15:28:24.542Z,2.22
2022-11-30T15:29:35.765Z,2.25
2022-11-30T15:30:46.816Z,2.25
2022-11-30T15:31:56.108Z,2.25
2022-11-30T15:32:59.970Z,2.27
2022-11-30T15:34:06.061Z,2.24
2022-11-30T15:35:43.652Z,2.22
2022-11-30T15:36:55.933Z,2.15
2022-11-30T15:37:59.760Z,2.10
2022-11-30T15:39:17.303Z,2.08
2022-11-30T15:40:34.609Z,2.09
2022-11-30T15:41:39.210Z,2.10
2022-11-30T15:42:47.850Z,2.10
2022-11-30T15:43:57.787Z,2.13
2022-11-30T15:45:26.814Z,2.08
2022-11-30T15:46:54.796Z,2.08
2022-11-30T15:48:00.812Z,2.05
2022-11-30T15:49:18.409Z,2.07
2022-11-30T15:50:31.067Z,2.11
2022-11-30T15:51:41.661Z,2.05
2022-11-30T15:52:50.242Z,2.06
2022-11-30T15:53:54.252Z,2.12
2022-11-30T15:55:03.318Z,2.09
2022-11-30T15:56:24.015Z,2.12
2022-11-30T15:57:59.064Z,2.06
2022-11-30T15:59:15.060Z,2.06
2022-11-30T16:00:22.736Z,2.00
2022-11-30T16:01:29.028Z,2.04
2022-11-30T16:02:36.068Z,2.00
2022-11-30T16:04:01.703Z,2.01
2022-11-30T16:05:14.553Z,1.98
2022-11-30T16:06:20.461Z,1.98
2022-11-30T16:08:03.001Z,2.00
2022-11-30T16:09:25.483Z,1.91
2022-11-30T16:10:38.554Z,1.97
2022-11-30T16:11:42.077Z,1.94
2022-11-30T16:12:48.648Z,2.00
2022-11-30T16:13:52.534Z,1.88
2022-11-30T16:14:56.926Z,1.88
2022-11-30T16:16:01.101Z,1.91
2022-11-30T16:17:08.977Z,1.93
2022-11-30T16:18:28.912Z,1.96
2022-11-30T16:19:33.096Z,1.92
2022-11-30T16:20:36.803Z,1.98
2022-11-30T16:21:41.376Z,1.99
2022-11-30T16:22:47.542Z,1.97
2022-11-30T16:23:51.832Z,1.98
2022-11-30T16:24:55.475Z,2.04
2022-11-30T16:26:00.259Z,2.01